Terminal Aerodrome Forecast
Issued by NWS Knoxville/Tri Cities, TN

Home | Current Version | Previous Version | Text Only | Print | Product List | Glossary On
Versions: 1 2 3 4 5 6 7 8 9 10 11 12 13 14 15
000
FTUS44 KMRX 241720
TAFCHA
TAF
KCHA 241720Z 2418/2518 17008KT P6SM BKN250
     FM250100 16004KT P6SM SCT050 BKN150
     FM250600 18006KT 5SM -SHRA BR SCT025 OVC035
     FM250800 20006KT 4SM TSRA BR SCT020 BKN030CB
     FM251300 21009KT 5SM -SHRA BR BKN025=

USA.gov is the U.S. government's official web portal to all federal, state and local government web resources and services.